sensor_id;sensor_type;location;lat;lon;timestamp;temperature;humidity
19610;DHT22;9952;47.122;-1.638;2024-01-30T00:00:50;10.70;99.90
19610;DHT22;9952;47.122;-1.638;2024-01-30T00:05:30;10.50;99.90
19610;DHT22;9952;47.122;-1.638;2024-01-30T00:10:11;10.40;99.90
19610;DHT22;9952;47.122;-1.638;2024-01-30T00:14:52;10.40;99.90
19610;DHT22;9952;47.122;-1.638;2024-01-30T00:19:32;10.30;99.90
19610;DHT22;9952;47.122;-1.638;2024-01-30T00:24:13;10.40;99.90
19610;DHT22;9952;47.122;-1.638;2024-01-30T00:28:53;10.30;99.90
19610;DHT22;9952;47.122;-1.638;2024-01-30T00:33:34;10.40;99.90
19610;DHT22;9952;47.122;-1.638;2024-01-30T00:38:15;10.40;99.90
19610;DHT22;9952;47.122;-1.638;2024-01-30T00:42:55;10.40;99.90
19610;DHT22;9952;47.122;-1.638;2024-01-30T00:47:36;10.50;99.90
19610;DHT22;9952;47.122;-1.638;2024-01-30T00:52:17;10.60;99.90
19610;DHT22;9952;47.122;-1.638;2024-01-30T00:56:57;10.70;99.90
19610;DHT22;9952;47.122;-1.638;2024-01-30T01:01:38;10.70;99.90
19610;DHT22;9952;47.122;-1.638;2024-01-30T01:06:19;10.70;99.90
19610;DHT22;9952;47.122;-1.638;2024-01-30T01:11:00;10.70;99.90
19610;DHT22;9952;47.122;-1.638;2024-01-30T01:15:40;10.70;99.90
19610;DHT22;9952;47.122;-1.638;2024-01-30T01:20:21;10.70;99.90
19610;DHT22;9952;47.122;-1.638;2024-01-30T01:25:02;10.70;99.90
19610;DHT22;9952;47.122;-1.638;2024-01-30T01:29:43;10.70;99.90
19610;DHT22;9952;47.122;-1.638;2024-01-30T01:34:24;10.70;99.90
19610;DHT22;9952;47.122;-1.638;2024-01-30T01:39:05;10.70;99.90
19610;DHT22;9952;47.122;-1.638;2024-01-30T01:43:45;10.70;99.90
19610;DHT22;9952;47.122;-1.638;2024-01-30T01:48:26;10.70;99.90
19610;DHT22;9952;47.122;-1.638;2024-01-30T01:53:08;10.70;99.90
19610;DHT22;9952;47.122;-1.638;2024-01-30T01:57:48;10.70;99.90
19610;DHT22;9952;47.122;-1.638;2024-01-30T02:02:30;10.70;99.90
19610;DHT22;9952;47.122;-1.638;2024-01-30T02:07:15;10.70;99.90
19610;DHT22;9952;47.122;-1.638;2024-01-30T02:11:56;10.70;99.90
19610;DHT22;9952;47.122;-1.638;2024-01-30T02:16:36;10.70;99.90
19610;DHT22;9952;47.122;-1.638;2024-01-30T02:21:18;10.70;99.90
19610;DHT22;9952;47.122;-1.638;2024-01-30T02:25:59;10.70;99.90
19610;DHT22;9952;47.122;-1.638;2024-01-30T02:30:42;10.80;99.90
19610;DHT22;9952;47.122;-1.638;2024-01-30T02:35:23;10.80;99.90
19610;DHT22;9952;47.122;-1.638;2024-01-30T02:40:04;10.80;99.90
19610;DHT22;9952;47.122;-1.638;2024-01-30T02:44:45;10.80;99.90
19610;DHT22;9952;47.122;-1.638;2024-01-30T02:49:25;10.80;99.90
19610;DHT22;9952;47.122;-1.638;2024-01-30T02:54:06;10.90;99.90
19610;DHT22;9952;47.122;-1.638;2024-01-30T02:58:47;10.80;99.90
19610;DHT22;9952;47.122;-1.638;2024-01-30T03:03:27;10.90;99.90
19610;DHT22;9952;47.122;-1.638;2024-01-30T03:08:08;10.90;99.90
19610;DHT22;9952;47.122;-1.638;2024-01-30T03:12:49;10.90;99.90
19610;DHT22;9952;47.122;-1.638;2024-01-30T03:17:29;10.90;99.90
19610;DHT22;9952;47.122;-1.638;2024-01-30T03:22:10;10.90;99.90
19610;DHT22;9952;47.122;-1.638;2024-01-30T03:26:50;10.90;99.90
19610;DHT22;9952;47.122;-1.638;2024-01-30T03:31:31;11.00;99.90
19610;DHT22;9952;47.122;-1.638;2024-01-30T03:36:12;11.00;99.90
19610;DHT22;9952;47.122;-1.638;2024-01-30T03:40:52;11.10;99.90
19610;DHT22;9952;47.122;-1.638;2024-01-30T03:45:33;11.10;99.90
19610;DHT22;9952;47.122;-1.638;2024-01-30T03:50:14;11.10;99.90
19610;DHT22;9952;47.122;-1.638;2024-01-30T03:54:54;11.10;99.90
19610;DHT22;9952;47.122;-1.638;2024-01-30T03:59:35;11.20;99.90
19610;DHT22;9952;47.122;-1.638;2024-01-30T04:04:16;11.20;99.90
19610;DHT22;9952;47.122;-1.638;2024-01-30T04:08:56;11.20;99.90
19610;DHT22;9952;47.122;-1.638;2024-01-30T04:13:37;11.20;99.90
19610;DHT22;9952;47.122;-1.638;2024-01-30T04:18:17;11.20;99.90
19610;DHT22;9952;47.122;-1.638;2024-01-30T04:22:58;11.20;99.90
19610;DHT22;9952;47.122;-1.638;2024-01-30T04:27:39;11.20;99.90
19610;DHT22;9952;47.122;-1.638;2024-01-30T04:32:19;11.20;99.90
19610;DHT22;9952;47.122;-1.638;2024-01-30T04:37:00;11.20;99.90
19610;DHT22;9952;47.122;-1.638;2024-01-30T04:41:41;11.20;99.90
19610;DHT22;9952;47.122;-1.638;2024-01-30T04:46:21;11.20;99.90
19610;DHT22;9952;47.122;-1.638;2024-01-30T04:51:02;11.20;99.90
19610;DHT22;9952;47.122;-1.638;2024-01-30T04:55:44;11.10;99.90
19610;DHT22;9952;47.122;-1.638;2024-01-30T05:00:25;11.20;99.90
19610;DHT22;9952;47.122;-1.638;2024-01-30T05:05:06;11.10;99.90
19610;DHT22;9952;47.122;-1.638;2024-01-30T05:09:46;11.10;99.90
19610;DHT22;9952;47.122;-1.638;2024-01-30T05:14:27;11.00;99.90
19610;DHT22;9952;47.122;-1.638;2024-01-30T05:19:08;10.90;99.90
19610;DHT22;9952;47.122;-1.638;2024-01-30T05:23:48;10.80;99.90
19610;DHT22;9952;47.122;-1.638;2024-01-30T05:28:30;10.70;99.90
19610;DHT22;9952;47.122;-1.638;2024-01-30T05:33:10;10.60;99.90
19610;DHT22;9952;47.122;-1.638;2024-01-30T05:37:52;10.60;99.90
19610;DHT22;9952;47.122;-1.638;2024-01-30T05:42:33;10.50;99.90
19610;DHT22;9952;47.122;-1.638;2024-01-30T05:47:13;10.40;99.90
19610;DHT22;9952;47.122;-1.638;2024-01-30T05:51:54;10.30;99.90
19610;DHT22;9952;47.122;-1.638;2024-01-30T05:56:35;10.30;99.90
19610;DHT22;9952;47.122;-1.638;2024-01-30T06:01:15;10.30;99.90
19610;DHT22;9952;47.122;-1.638;2024-01-30T06:05:56;10.30;99.90
19610;DHT22;9952;47.122;-1.638;2024-01-30T06:10:37;10.30;99.90
19610;DHT22;9952;47.122;-1.638;2024-01-30T06:15:17;10.30;99.90
19610;DHT22;9952;47.122;-1.638;2024-01-30T06:19:58;10.30;99.90
19610;DHT22;9952;47.122;-1.638;2024-01-30T06:24:39;10.40;99.90
19610;DHT22;9952;47.122;-1.638;2024-01-30T06:29:20;10.30;99.90
19610;DHT22;9952;47.122;-1.638;2024-01-30T06:34:01;10.30;99.90
19610;DHT22;9952;47.122;-1.638;2024-01-30T06:38:42;10.30;99.90
19610;DHT22;9952;47.122;-1.638;2024-01-30T06:43:22;10.30;99.90
19610;DHT22;9952;47.122;-1.638;2024-01-30T06:48:03;10.30;99.90
19610;DHT22;9952;47.122;-1.638;2024-01-30T06:52:44;10.30;99.90
19610;DHT22;9952;47.122;-1.638;2024-01-30T06:57:25;10.20;99.90
19610;DHT22;9952;47.122;-1.638;2024-01-30T07:02:08;10.20;99.90
19610;DHT22;9952;47.122;-1.638;2024-01-30T07:06:49;10.20;99.90
19610;DHT22;9952;47.122;-1.638;2024-01-30T07:11:30;10.20;99.90
19610;DHT22;9952;47.122;-1.638;2024-01-30T07:16:10;10.10;99.90
19610;DHT22;9952;47.122;-1.638;2024-01-30T07:20:52;10.00;99.90
19610;DHT22;9952;47.122;-1.638;2024-01-30T07:25:32;9.90;99.90
19610;DHT22;9952;47.122;-1.638;2024-01-30T07:30:17;9.80;99.90
19610;DHT22;9952;47.122;-1.638;2024-01-30T07:34:59;9.70;99.90
19610;DHT22;9952;47.122;-1.638;2024-01-30T07:39:39;9.60;99.90
19610;DHT22;9952;47.122;-1.638;2024-01-30T07:44:20;9.50;99.90
19610;DHT22;9952;47.122;-1.638;2024-01-30T07:49:01;9.40;99.90
19610;DHT22;9952;47.122;-1.638;2024-01-30T07:53:42;9.40;99.90
19610;DHT22;9952;47.122;-1.638;2024-01-30T07:58:23;9.20;99.90
19610;DHT22;9952;47.122;-1.638;2024-01-30T08:03:04;9.10;99.90
19610;DHT22;9952;47.122;-1.638;2024-01-30T08:07:45;9.00;99.90
19610;DHT22;9952;47.122;-1.638;2024-01-30T08:12:26;9.00;99.90
19610;DHT22;9952;47.122;-1.638;2024-01-30T08:17:07;9.00;99.90
19610;DHT22;9952;47.122;-1.638;2024-01-30T08:21:48;8.90;99.90
19610;DHT22;9952;47.122;-1.638;2024-01-30T08:26:28;8.90;99.90
19610;DHT22;9952;47.122;-1.638;2024-01-30T08:31:10;9.00;99.90
19610;DHT22;9952;47.122;-1.638;2024-01-30T08:35:52;9.10;99.90
19610;DHT22;9952;47.122;-1.638;2024-01-30T08:40:34;9.20;99.90
19610;DHT22;9952;47.122;-1.638;2024-01-30T08:45:15;9.30;99.90
19610;DHT22;9952;47.122;-1.638;2024-01-30T08:49:56;9.50;99.90
19610;DHT22;9952;47.122;-1.638;2024-01-30T08:54:36;9.80;99.90
19610;DHT22;9952;47.122;-1.638;2024-01-30T08:59:17;10.00;99.90
19610;DHT22;9952;47.122;-1.638;2024-01-30T09:03:57;10.20;99.90
19610;DHT22;9952;47.122;-1.638;2024-01-30T09:08:38;10.40;99.90
19610;DHT22;9952;47.122;-1.638;2024-01-30T09:13:19;10.70;99.90
19610;DHT22;9952;47.122;-1.638;2024-01-30T09:18:00;11.00;99.90
19610;DHT22;9952;47.122;-1.638;2024-01-30T09:22:40;11.20;99.90
19610;DHT22;9952;47.122;-1.638;2024-01-30T09:27:21;11.50;99.90
19610;DHT22;9952;47.122;-1.638;2024-01-30T09:32:02;11.60;99.90
19610;DHT22;9952;47.122;-1.638;2024-01-30T09:36:42;11.40;99.90
19610;DHT22;9952;47.122;-1.638;2024-01-30T09:41:24;11.20;99.90
19610;DHT22;9952;47.122;-1.638;2024-01-30T09:46:05;11.00;99.90
19610;DHT22;9952;47.122;-1.638;2024-01-30T09:50:48;11.00;99.90
19610;DHT22;9952;47.122;-1.638;2024-01-30T09:55:29;11.10;99.90
19610;DHT22;9952;47.122;-1.638;2024-01-30T10:00:10;11.20;99.90
19610;DHT22;9952;47.122;-1.638;2024-01-30T10:04:52;11.40;99.90
19610;DHT22;9952;47.122;-1.638;2024-01-30T10:09:33;11.50;99.90
19610;DHT22;9952;47.122;-1.638;2024-01-30T10:14:15;11.60;99.90
19610;DHT22;9952;47.122;-1.638;2024-01-30T10:18:56;11.50;99.90
19610;DHT22;9952;47.122;-1.638;2024-01-30T10:23:37;11.70;99.90
19610;DHT22;9952;47.122;-1.638;2024-01-30T10:28:18;11.70;99.90
19610;DHT22;9952;47.122;-1.638;2024-01-30T10:32:59;11.90;99.90
19610;DHT22;9952;47.122;-1.638;2024-01-30T10:37:41;12.10;99.90
19610;DHT22;9952;47.122;-1.638;2024-01-30T10:42:26;12.20;99.90
19610;DHT22;9952;47.122;-1.638;2024-01-30T10:47:11;12.30;99.90
19610;DHT22;9952;47.122;-1.638;2024-01-30T10:51:53;12.40;99.90
19610;DHT22;9952;47.122;-1.638;2024-01-30T10:56:35;12.40;99.90
19610;DHT22;9952;47.122;-1.638;2024-01-30T11:01:20;12.40;99.90
19610;DHT22;9952;47.122;-1.638;2024-01-30T11:06:03;12.50;99.90
19610;DHT22;9952;47.122;-1.638;2024-01-30T11:10:48;12.60;99.90
19610;DHT22;9952;47.122;-1.638;2024-01-30T11:15:29;12.60;99.90
19610;DHT22;9952;47.122;-1.638;2024-01-30T11:20:14;12.70;99.90
19610;DHT22;9952;47.122;-1.638;2024-01-30T11:24:55;12.90;99.90
19610;DHT22;9952;47.122;-1.638;2024-01-30T11:29:37;12.90;99.90
19610;DHT22;9952;47.122;-1.638;2024-01-30T11:34:19;13.00;99.90
19610;DHT22;9952;47.122;-1.638;2024-01-30T11:39:01;13.20;99.90
19610;DHT22;9952;47.122;-1.638;2024-01-30T11:43:52;13.20;99.90
19610;DHT22;9952;47.122;-1.638;2024-01-30T11:48:33;13.20;99.90
19610;DHT22;9952;47.122;-1.638;2024-01-30T11:53:13;13.20;99.90
19610;DHT22;9952;47.122;-1.638;2024-01-30T11:57:58;13.00;99.90
19610;DHT22;9952;47.122;-1.638;2024-01-30T12:02:42;12.80;99.90
19610;DHT22;9952;47.122;-1.638;2024-01-30T12:07:23;13.10;99.90
19610;DHT22;9952;47.122;-1.638;2024-01-30T12:12:07;13.30;99.90
19610;DHT22;9952;47.122;-1.638;2024-01-30T12:16:52;13.60;99.90
19610;DHT22;9952;47.122;-1.638;2024-01-30T12:21:34;13.80;99.90
19610;DHT22;9952;47.122;-1.638;2024-01-30T12:26:15;14.00;99.90
19610;DHT22;9952;47.122;-1.638;2024-01-30T12:30:56;14.10;99.90
19610;DHT22;9952;47.122;-1.638;2024-01-30T12:35:37;14.20;99.90
19610;DHT22;9952;47.122;-1.638;2024-01-30T12:40:18;14.00;99.90
19610;DHT22;9952;47.122;-1.638;2024-01-30T12:44:59;14.20;99.90
19610;DHT22;9952;47.122;-1.638;2024-01-30T12:49:40;14.40;99.90
19610;DHT22;9952;47.122;-1.638;2024-01-30T12:54:20;14.40;99.90
19610;DHT22;9952;47.122;-1.638;2024-01-30T12:59:01;14.40;99.90
19610;DHT22;9952;47.122;-1.638;2024-01-30T13:03:41;14.40;99.90
19610;DHT22;9952;47.122;-1.638;2024-01-30T13:08:22;14.40;99.90
19610;DHT22;9952;47.122;-1.638;2024-01-30T13:13:03;14.20;99.90
19610;DHT22;9952;47.122;-1.638;2024-01-30T13:17:44;14.30;99.90
19610;DHT22;9952;47.122;-1.638;2024-01-30T13:22:27;14.60;99.90
19610;DHT22;9952;47.122;-1.638;2024-01-30T13:27:08;14.80;99.90
19610;DHT22;9952;47.122;-1.638;2024-01-30T13:31:49;14.80;99.90
19610;DHT22;9952;47.122;-1.638;2024-01-30T13:36:29;14.80;99.90
19610;DHT22;9952;47.122;-1.638;2024-01-30T13:41:10;14.90;99.90
19610;DHT22;9952;47.122;-1.638;2024-01-30T13:45:51;15.10;99.90
19610;DHT22;9952;47.122;-1.638;2024-01-30T13:50:32;14.90;99.90
19610;DHT22;9952;47.122;-1.638;2024-01-30T13:55:13;14.80;99.90
19610;DHT22;9952;47.122;-1.638;2024-01-30T13:59:54;14.70;99.90
19610;DHT22;9952;47.122;-1.638;2024-01-30T14:04:35;14.30;99.90
19610;DHT22;9952;47.122;-1.638;2024-01-30T14:09:17;14.50;99.90
19610;DHT22;9952;47.122;-1.638;2024-01-30T14:13:58;14.50;99.90
19610;DHT22;9952;47.122;-1.638;2024-01-30T14:18:39;14.50;99.90
19610;DHT22;9952;47.122;-1.638;2024-01-30T14:23:20;14.60;99.90
19610;DHT22;9952;47.122;-1.638;2024-01-30T14:28:01;14.30;99.90
19610;DHT22;9952;47.122;-1.638;2024-01-30T14:32:42;14.00;99.90
19610;DHT22;9952;47.122;-1.638;2024-01-30T14:37:25;14.10;99.90
19610;DHT22;9952;47.122;-1.638;2024-01-30T14:42:06;14.10;99.90
19610;DHT22;9952;47.122;-1.638;2024-01-30T14:46:46;14.20;99.90
19610;DHT22;9952;47.122;-1.638;2024-01-30T14:51:27;14.20;99.90
19610;DHT22;9952;47.122;-1.638;2024-01-30T14:56:10;14.30;99.90
19610;DHT22;9952;47.122;-1.638;2024-01-30T15:00:51;14.30;99.90
19610;DHT22;9952;47.122;-1.638;2024-01-30T15:05:31;14.50;99.90
19610;DHT22;9952;47.122;-1.638;2024-01-30T15:10:12;14.10;99.90
19610;DHT22;9952;47.122;-1.638;2024-01-30T15:14:53;13.90;99.90
19610;DHT22;9952;47.122;-1.638;2024-01-30T15:19:33;13.90;99.90
19610;DHT22;9952;47.122;-1.638;2024-01-30T15:24:14;13.80;99.90
19610;DHT22;9952;47.122;-1.638;2024-01-30T15:28:57;13.70;99.90
19610;DHT22;9952;47.122;-1.638;2024-01-30T15:33:38;13.70;99.90
19610;DHT22;9952;47.122;-1.638;2024-01-30T15:38:19;13.60;99.90
19610;DHT22;9952;47.122;-1.638;2024-01-30T15:43:01;13.40;99.90
19610;DHT22;9952;47.122;-1.638;2024-01-30T15:47:42;13.40;99.90
19610;DHT22;9952;47.122;-1.638;2024-01-30T15:52:22;13.40;99.90
19610;DHT22;9952;47.122;-1.638;2024-01-30T15:57:03;13.30;99.90
19610;DHT22;9952;47.122;-1.638;2024-01-30T16:01:44;13.20;99.90
19610;DHT22;9952;47.122;-1.638;2024-01-30T16:06:29;13.00;99.90
19610;DHT22;9952;47.122;-1.638;2024-01-30T16:11:09;12.90;99.90
19610;DHT22;9952;47.122;-1.638;2024-01-30T16:15:50;13.00;99.90
19610;DHT22;9952;47.122;-1.638;2024-01-30T16:20:31;13.10;99.90
19610;DHT22;9952;47.122;-1.638;2024-01-30T16:25:11;13.00;99.90
19610;DHT22;9952;47.122;-1.638;2024-01-30T16:29:55;13.10;99.90
19610;DHT22;9952;47.122;-1.638;2024-01-30T16:34:35;13.00;99.90
19610;DHT22;9952;47.122;-1.638;2024-01-30T16:39:16;13.00;99.90
19610;DHT22;9952;47.122;-1.638;2024-01-30T16:43:57;12.90;99.90
19610;DHT22;9952;47.122;-1.638;2024-01-30T16:48:37;12.90;99.90
19610;DHT22;9952;47.122;-1.638;2024-01-30T16:53:18;12.80;99.90
19610;DHT22;9952;47.122;-1.638;2024-01-30T16:57:58;12.80;99.90
19610;DHT22;9952;47.122;-1.638;2024-01-30T17:02:39;12.70;99.90
19610;DHT22;9952;47.122;-1.638;2024-01-30T17:07:20;12.50;99.90
19610;DHT22;9952;47.122;-1.638;2024-01-30T17:12:03;12.30;99.90
19610;DHT22;9952;47.122;-1.638;2024-01-30T17:16:43;12.20;99.90
19610;DHT22;9952;47.122;-1.638;2024-01-30T17:21:25;12.20;99.90
19610;DHT22;9952;47.122;-1.638;2024-01-30T17:26:06;12.10;99.90
19610;DHT22;9952;47.122;-1.638;2024-01-30T17:30:47;12.10;99.90
19610;DHT22;9952;47.122;-1.638;2024-01-30T17:35:28;12.10;99.90
19610;DHT22;9952;47.122;-1.638;2024-01-30T17:40:09;12.00;99.90
19610;DHT22;9952;47.122;-1.638;2024-01-30T17:44:50;11.90;99.90
19610;DHT22;9952;47.122;-1.638;2024-01-30T17:49:31;11.80;99.90
19610;DHT22;9952;47.122;-1.638;2024-01-30T17:54:11;11.70;99.90
19610;DHT22;9952;47.122;-1.638;2024-01-30T17:58:52;11.60;99.90
19610;DHT22;9952;47.122;-1.638;2024-01-30T18:03:33;11.50;99.90
19610;DHT22;9952;47.122;-1.638;2024-01-30T18:08:14;11.40;99.90
19610;DHT22;9952;47.122;-1.638;2024-01-30T18:12:54;11.40;99.90
19610;DHT22;9952;47.122;-1.638;2024-01-30T18:17:37;11.40;99.90
19610;DHT22;9952;47.122;-1.638;2024-01-30T18:22:18;11.30;99.90
19610;DHT22;9952;47.122;-1.638;2024-01-30T18:26:58;11.30;99.90
19610;DHT22;9952;47.122;-1.638;2024-01-30T18:31:39;11.20;99.90
19610;DHT22;9952;47.122;-1.638;2024-01-30T18:36:23;11.10;99.90
19610;DHT22;9952;47.122;-1.638;2024-01-30T18:41:03;11.00;99.90
19610;DHT22;9952;47.122;-1.638;2024-01-30T18:45:52;11.00;99.90
19610;DHT22;9952;47.122;-1.638;2024-01-30T18:50:33;10.80;99.90
19610;DHT22;9952;47.122;-1.638;2024-01-30T18:55:14;10.80;99.90
19610;DHT22;9952;47.122;-1.638;2024-01-30T18:59:55;10.60;99.90
19610;DHT22;9952;47.122;-1.638;2024-01-30T19:04:35;10.60;99.90
19610;DHT22;9952;47.122;-1.638;2024-01-30T19:09:16;10.50;99.90
19610;DHT22;9952;47.122;-1.638;2024-01-30T19:13:57;10.40;99.90
19610;DHT22;9952;47.122;-1.638;2024-01-30T19:18:37;10.40;99.90
19610;DHT22;9952;47.122;-1.638;2024-01-30T19:23:19;10.30;99.90
19610;DHT22;9952;47.122;-1.638;2024-01-30T19:27:59;10.20;99.90
19610;DHT22;9952;47.122;-1.638;2024-01-30T19:32:40;10.20;99.90
19610;DHT22;9952;47.122;-1.638;2024-01-30T19:37:21;10.10;99.90
19610;DHT22;9952;47.122;-1.638;2024-01-30T19:42:05;9.90;99.90
19610;DHT22;9952;47.122;-1.638;2024-01-30T19:46:46;9.80;99.90
19610;DHT22;9952;47.122;-1.638;2024-01-30T19:51:26;9.70;99.90
19610;DHT22;9952;47.122;-1.638;2024-01-30T19:56:07;9.60;99.90
19610;DHT22;9952;47.122;-1.638;2024-01-30T20:00:48;9.60;99.90
19610;DHT22;9952;47.122;-1.638;2024-01-30T20:05:30;9.50;99.90
19610;DHT22;9952;47.122;-1.638;2024-01-30T20:10:11;9.50;99.90
19610;DHT22;9952;47.122;-1.638;2024-01-30T20:14:53;9.60;99.90
19610;DHT22;9952;47.122;-1.638;2024-01-30T20:19:33;9.60;99.90
19610;DHT22;9952;47.122;-1.638;2024-01-30T20:24:14;9.60;99.90
19610;DHT22;9952;47.122;-1.638;2024-01-30T20:28:55;9.60;99.90
19610;DHT22;9952;47.122;-1.638;2024-01-30T20:33:35;9.60;99.90
19610;DHT22;9952;47.122;-1.638;2024-01-30T20:38:17;9.50;99.90
19610;DHT22;9952;47.122;-1.638;2024-01-30T20:42:58;9.40;99.90
19610;DHT22;9952;47.122;-1.638;2024-01-30T20:47:38;9.30;99.90
19610;DHT22;9952;47.122;-1.638;2024-01-30T20:52:19;9.20;99.90
19610;DHT22;9952;47.122;-1.638;2024-01-30T20:57:00;9.20;99.90
19610;DHT22;9952;47.122;-1.638;2024-01-30T21:01:40;9.10;99.90
19610;DHT22;9952;47.122;-1.638;2024-01-30T21:06:21;9.10;99.90
19610;DHT22;9952;47.122;-1.638;2024-01-30T21:11:02;9.00;99.90
19610;DHT22;9952;47.122;-1.638;2024-01-30T21:15:46;9.00;99.90
19610;DHT22;9952;47.122;-1.638;2024-01-30T21:20:27;8.90;99.90
19610;DHT22;9952;47.122;-1.638;2024-01-30T21:25:08;8.90;99.90
19610;DHT22;9952;47.122;-1.638;2024-01-30T21:29:49;8.80;99.90
19610;DHT22;9952;47.122;-1.638;2024-01-30T21:34:29;8.90;99.90
19610;DHT22;9952;47.122;-1.638;2024-01-30T21:39:10;8.90;99.90
19610;DHT22;9952;47.122;-1.638;2024-01-30T21:43:51;9.00;99.90
19610;DHT22;9952;47.122;-1.638;2024-01-30T21:48:33;8.90;99.90
19610;DHT22;9952;47.122;-1.638;2024-01-30T21:53:14;8.80;99.90
19610;DHT22;9952;47.122;-1.638;2024-01-30T21:57:54;8.80;99.90
19610;DHT22;9952;47.122;-1.638;2024-01-30T22:02:36;8.80;99.90
19610;DHT22;9952;47.122;-1.638;2024-01-30T22:07:16;8.80;99.90
19610;DHT22;9952;47.122;-1.638;2024-01-30T22:11:57;8.80;99.90
19610;DHT22;9952;47.122;-1.638;2024-01-30T22:16:37;8.80;99.90
19610;DHT22;9952;47.122;-1.638;2024-01-30T22:21:18;8.80;99.90
19610;DHT22;9952;47.122;-1.638;2024-01-30T22:25:59;8.80;99.90
19610;DHT22;9952;47.122;-1.638;2024-01-30T22:30:40;8.70;99.90
19610;DHT22;9952;47.122;-1.638;2024-01-30T22:35:21;8.80;99.90
19610;DHT22;9952;47.122;-1.638;2024-01-30T22:40:02;8.80;99.90
19610;DHT22;9952;47.122;-1.638;2024-01-30T22:44:44;8.80;99.90
19610;DHT22;9952;47.122;-1.638;2024-01-30T22:49:24;8.80;99.90
19610;DHT22;9952;47.122;-1.638;2024-01-30T22:54:06;8.80;99.90
19610;DHT22;9952;47.122;-1.638;2024-01-30T22:58:47;8.80;99.90
19610;DHT22;9952;47.122;-1.638;2024-01-30T23:03:27;8.70;99.90
19610;DHT22;9952;47.122;-1.638;2024-01-30T23:08:08;8.80;99.90
19610;DHT22;9952;47.122;-1.638;2024-01-30T23:12:49;8.90;99.90
19610;DHT22;9952;47.122;-1.638;2024-01-30T23:17:30;9.00;99.90
19610;DHT22;9952;47.122;-1.638;2024-01-30T23:22:12;9.00;99.90
19610;DHT22;9952;47.122;-1.638;2024-01-30T23:26:53;9.00;99.90
19610;DHT22;9952;47.122;-1.638;2024-01-30T23:31:33;9.00;99.90
19610;DHT22;9952;47.122;-1.638;2024-01-30T23:36:14;9.00;99.90
19610;DHT22;9952;47.122;-1.638;2024-01-30T23:40:55;9.00;99.90
19610;DHT22;9952;47.122;-1.638;2024-01-30T23:45:36;9.00;99.90
19610;DHT22;9952;47.122;-1.638;2024-01-30T23:50:17;9.00;99.90
19610;DHT22;9952;47.122;-1.638;2024-01-30T23:54:57;8.90;99.90
19610;DHT22;9952;47.122;-1.638;2024-01-30T23:59:38;8.80;99.90
